CANAVERAL NM East of Cape Canaveral, FL (41009)

Conditions for Tuesday

Daily
Weekly
Monthly
Marine Data Graph

Current Weather/Wave Observations

Air Temperature: 80° F
Humidity: 73
Wind direction (W Dir): NE (45 - 54 Degrees)
Wind Speed (W Spd): 17.5 kts (20.1 mph)
Wind Gust (W Spd): 23.3 kts (26.8 mph)
Atmospheric Pressure (AP): 30.03 in
Pressure Tendency (PT): +0.03 in
Increasing, then steady; or increasing, then increasing more slowly

Updated: 9:00 PM EDT on October 17, 2017

Marine & Boating Location Search

Enter a coastal zip code for marine weather.

Current Wave Detail Observations

Water Depth: 131 ft
Wave Height: 7.41 ft
Spectral Peak Period: 10.0 sec
Average Wave Period: 6.0 sec
Sampling Interval: 0.6 sec
Wave Record: 2400 sec

Updated: 9:00 PM EDT on October 17, 2017

General Information

Location: 28.522 North -80.188 West
Buoy Type: 3-meter discus buoy
Buoy Hull: 3D86
Payload: AMPS payload
Owned by: NDBC
Windspeed: Measured by obtained from anemometer
Sea Surface: Measured by Intake

Weather and Wave Data

Time Temp Humidity Wind Dominant Wave Wind Wave Wave Swell Pressure
  Air
(°F)
Water
(°F)
  Dir Speed
(kts)
Speed
(mph)
Period
(sec)
Height
(ft)
Range
(ft)
Period
(sec)
Height
(ft)
Range
(ft)
Period
(sec)
Height
(ft)
Range
(ft)
Atmo.
(in)
Tend.
(in)
20:20 82 83 71 NE 7.8 8.9 - - - - - - 29.95 -
20:30 82 84 70 NE 7.8 8.9 - - - - - - 29.94 -
20:40 82 83 69 NE 7.8 8.9 - - - - - - 29.95 -
20:50 82 83 69 NE 7.8 8.9 8 3.61 exactly 3.6 - - - 8 3.28 2.46 - 4.10 29.95 -
21:00 82 83 69 NE 7.8 8.9 - - - - - - 29.95 +0.03
21:30 82 83 68 NE 7.8 8.9 - - - - - - 29.96 -
21:40 82 83 69 NE 7.8 8.9 - - - - - - 29.96 -
21:50 82 83 69 NE 7.8 8.9 9 3.94 exactly 3.9 - - - 9 3.28 2.46 - 4.10 29.97 -
22:00 82 83 69 ENE 7.8 8.9 - - - - - - 29.97 +0.05
22:10 82 83 68 NE 7.8 8.9 - - - - - - 29.98 -
22:20 82 83 70 NE 7.8 8.9 - - - - - - 29.98 -
22:40 82 84 69 NE 7.8 8.9 - - - - - - 29.98 -
22:50 82 84 68 NE 7.8 8.9 8 3.28 exactly 3.3 - - - 8 3.28 2.46 - 4.10 29.98 -
23:00 82 84 69 ENE 7.8 8.9 - - - - - - 29.98 +0.04
23:10 82 84 69 ENE 7.8 8.9 - - - - - - 29.98 -
23:20 82 84 68 ENE 5.8 6.7 - - - - - - 29.98 -
23:40 82 84 69 ENE 5.8 6.7 - - - - - - 29.98 -
23:50 82 84 68 ENE 5.8 6.7 - - - - - - 29.98 -
00:00 82 84 69 East 5.8 6.7 - - - - - - 29.98 +0.02
00:20 82 84 69 ENE 5.8 6.7 - - - - - - 29.97 -
00:30 82 84 67 ENE 5.8 6.7 - - - - - - 29.97 -
00:40 82 84 68 East 5.8 6.7 - - - - - - 29.97 -
01:10 82 84 70 ESE 7.8 8.9 - - - - - - 29.96 -
01:20 82 84 70 East 5.8 6.7 - - - - - - 29.97 -
01:30 82 84 69 East 5.8 6.7 - - - - - - 29.96 -
01:40 82 84 68 East 5.8 6.7 - - - - - - 29.96 -
01:50 82 84 69 ESE 5.8 6.7 8 2.95 exactly 3.0 - - - 8 3.28 2.46 - 4.10 29.96 -
02:00 82 84 69 ESE 5.8 6.7 - - - - - - 29.96 -0.02
02:10 82 84 69 SE 5.8 6.7 - - - - - - 29.96 -
02:20 82 84 69 SSE 3.9 4.5 - - - - - - 29.96 -
02:30 82 84 69 SE 5.8 6.7 - - - - - - 29.95 -
02:40 82 84 69 SSE 5.8 6.7 - - - - - - 29.95 -
02:50 82 84 70 SSE 3.9 4.5 8 2.95 exactly 3.0 - - - 8 3.28 2.46 - 4.10 29.95 -
03:00 82 84 69 South 3.9 4.5 - - - - - - 29.95 -0.02
03:10 82 84 69 South 3.9 4.5 - - - - - - 29.95 -
03:20 82 84 70 South 3.9 4.5 - - - - - - 29.95 -
03:40 82 84 70 SSW 3.9 4.5 - - - - - - 29.95 -
03:50 82 84 70 SW 3.9 4.5 8 2.95 exactly 3.0 - - - 8 3.28 2.46 - 4.10 29.95 -
04:00 82 84 69 SSW 3.9 4.5 - - - - - - 29.94 -0.02
04:10 81 84 68 WSW 9.7 11.2 - - - - - - 29.95 -
04:20 81 84 65 West 9.7 11.2 - - - - - - 29.95 -
04:30 79 84 79 WNW 15.6 17.9 - - - - - - 29.96 -
04:40 77 84 86 WNW 17.5 20.1 - - - - - - 29.95 -
04:50 76 84 88 WNW 13.6 15.7 9 2.62 exactly 2.6 5 1.64 0.82 - 2.46 9 1.64 0.82 - 2.46 29.97 -
05:10 77 84 86 North 11.7 13.4 - - - - - - 29.96 -
05:20 77
-
86 North 9.7 11.2 - - - - - - 29.96 -
05:30 78 84 82 North 9.7 11.2 - - - - - - 29.97 -
05:40 79 84 77 North 9.7 11.2 - - - - - - 29.97 -
05:50 79 84 74 North 11.7 13.4 8 2.62 exactly 2.6 3 1.64 0.82 - 2.46 8 1.64 0.82 - 2.46 29.97 -
06:10 79 84 77 North 13.6 15.7 - - - - - - 29.98 -
06:30 79 84 77 North 13.6 15.7 - - - - - - 29.98 -
06:40 79 84 75 North 15.6 17.9 - - - - - - 29.99 -
07:10 79 84 76 North 11.7 13.4 - - - - - - 30.00 -
07:20 79 84 76 North 13.6 15.7 - - - - - - 30.00 -
07:30 79 84 75 NNE 11.7 13.4 - - - - - - 30.00 -
07:40 79 84 76 NNE 13.6 15.7 - - - - - - 30.00 -
07:50 79 84 73 NNE 13.6 15.7 9 3.28 exactly 3.3 4 1.64 0.82 - 2.46 9 1.64 0.82 - 2.46 30.01 -
08:00 79 84 70 NNE 11.7 13.4 - - - - - - 30.01 +0.04
08:10 79 84 71 North 11.7 13.4 - - - - - - 30.01 -
08:20 79 84 68 North 11.7 13.4 - - - - - - 30.01 -
08:30 80 84 69 NNE 11.7 13.4 - - - - - - 30.01 -
08:40 80 84 69 NNE 11.7 13.4 - - - - - - 30.01 -
08:50 80 84 69 NNE 11.7 13.4 9 3.28 exactly 3.3 4 1.64 0.82 - 2.46 9 3.28 2.46 - 4.10 30.02 -
09:10 80 84 71 NNE 9.7 11.2 - - - - - - 30.03 -
09:20 80 84 71 NNE 9.7 11.2 - - - - - - 30.04 -
09:30 80 84 73 NNE 11.7 13.4 - - - - - - 30.04 -
09:40 80 84 72 NE 9.7 11.2 - - - - - - 30.04 -
09:50 81 84 69 NE 11.7 13.4 9 3.61 exactly 3.6 4 1.64 0.82 - 2.46 9 3.28 2.46 - 4.10 30.04 -
10:10 81 84 69 NE 9.7 11.2 - - - - - - 30.04 -
10:30 81 84 71 NE 11.7 13.4 - - - - - - 30.05 -
10:40 81 84 71 NE 11.7 13.4 - - - - - - 30.05 -
10:50 81 84 71 NE 11.7 13.4 9 3.28 exactly 3.3 4 1.64 0.82 - 2.46 9 3.28 2.46 - 4.10 30.05 -
11:00 81 84 69 NE 9.7 11.2 - - - - - - 30.05 +0.04
11:10 81 84 68 NE 9.7 11.2 - - - - - - 30.05 -
11:20 81 84 71 ENE 9.7 11.2 - - - - - - 30.05 -
11:40 81 84 70 ENE 11.7 13.4 - - - - - - 30.04 -
11:50 80 84 74 ENE 13.6 15.7 7 3.94 exactly 3.9 4 1.64 0.82 - 2.46 7 3.28 2.46 - 4.10 30.04 -
12:00 80 84 74 ENE 13.6 15.7 - - - - - - 30.05 +0.02
12:20 81 84 66 NE 13.6 15.7 - - - - - - 30.04 -
12:40 81 84 72 NNE 17.5 20.1 - - - - - - 30.04 -
12:50 79 84 79 NNE 19.4 22.4 7 4.59 exactly 4.6 7 3.28 2.46 - 4.10 8 3.28 2.46 - 4.10 30.04 -
13:00 78 84 84 North 17.5 20.1 - - - - - - 30.04 -
13:10 77 84 84 North 15.6 17.9 - - - - - - 30.04 -
13:30 79 84 77 North 13.6 15.7 - - - - - - 30.03 -
13:40 79 84 78 North 15.6 17.9 - - - - - - 30.02 -
13:50 79 84 79 NNE 15.6 17.9 9 4.59 exactly 4.6 6 3.28 2.46 - 4.10 9 3.28 2.46 - 4.10 30.01 -
14:10 79 84 73 NNE 15.6 17.9 - - - - - - 30.01 -
14:20 79 84 72 NNE 15.6 17.9 - - - - - - 30.01 -
14:30 79 84 73 NNE 13.6 15.7 - - - - - - 30.01 -
14:40 79 84 74 NNE 15.6 17.9 - - - - - - 30.01 -
14:50 80 84 73 NNE 15.6 17.9 10 5.25 exactly 5.2 7 3.28 2.46 - 4.10 10 3.28 2.46 - 4.10 30.01 -
15:10 80 84 72 NNE 15.6 17.9 - - - - - - 30.00 -
15:20 80 84 75 NNE 13.6 15.7 - - - - - - 30.00 -
15:30 80 84 76 NNE 13.6 15.7 - - - - - - 30.00 -
15:40 80 84 72 NNE 15.6 17.9 - - - - - - 29.99 -
15:50 80 84 71 NNE 13.6 15.7 11 5.91 exactly 5.9 7 3.28 2.46 - 4.10 11 4.92 4.10 - 5.74 30.00 -
16:10 80 84 70 NNE 15.6 17.9 - - - - - - 30.00 -
16:20 80 84 71 NE 13.6 15.7 - - - - - - 30.00 -
16:40 80 84 71 NNE 15.6 17.9 - - - - - - 30.00 -
16:50 80 84 67 NNE 13.6 15.7 10 5.58 exactly 5.6 6 3.28 2.46 - 4.10 10 4.92 4.10 - 5.74 30.00 -
17:00 80 84 67 NNE 13.6 15.7 - - - - - - 30.00 -
17:20 80 84 74 NNE 13.6 15.7 - - - - - - 30.00 -
17:40 80 84 72 NNE 15.6 17.9 - - - - - - 30.00 -
17:50 80 84 73 NNE 15.6 17.9 10 5.58 exactly 5.6 6 3.28 2.46 - 4.10 10 4.92 4.10 - 5.74 30.00 -
18:10 80 84 74 NE 17.5 20.1 - - - - - - 30.00 -
18:20 78 84 77 ENE 17.5 20.1 - - - - - - 30.01 -
18:30 79 84 72 NE 13.6 15.7 - - - - - - 30.00 -
18:40 80 84 73 NE 15.6 17.9 - - - - - - 30.00 -
18:50 80 84 76 NNE 17.5 20.1 10 5.91 exactly 5.9 6 3.28 2.46 - 4.10 10 4.92 4.10 - 5.74 30.01 -
19:10 80 84 72 NNE 17.5 20.1 - - - - - - 30.01 -
19:20 80 84 74 NE 17.5 20.1 - - - - - - 30.01 -
19:40 80 84 73 NE 17.5 20.1 - - - - - - 30.02 -
19:50 80 84 73 NE 17.5 20.1 11 6.23 exactly 6.2 6 3.28 2.46 - 4.10 11 4.92 4.10 - 5.74 30.02 -
20:10 80 84 74 NE 17.5 20.1 - - - - - - 30.02 -
20:20 80 84 74 NE 17.5 20.1 - - - - - - 30.02 -
20:30 80 84 74 NE 17.5 20.1 - - - - - - 30.02 -
20:40 80 84 73 NE 17.5 20.1 - - - - - - 30.02 -
20:50 80 84 74 NE 17.5 20.1 10 7.55 exactly 7.5 6 4.92 4.10 - 5.74 10 6.56 5.74 - 7.38 30.03 -

Detailed Wave Spectra

Time Water Depth Wave Height Spectral Peak Period Average Wave Period Sampling Interval Wave Record
20:00 131 ft 3.38 ft 8.3 sec 6.6 sec 0.6 sec 2400 sec
05:00 131 ft 2.72 ft 9.1 sec 6.5 sec 0.6 sec 2400 sec
06:00 131 ft 2.53 ft 8.3 sec 5.2 sec 0.6 sec 2400 sec
07:00 131 ft 3.38 ft 9.1 sec 4.9 sec 0.6 sec 2400 sec
09:00 131 ft 3.28 ft 9.1 sec 5.0 sec 0.6 sec 2400 sec
10:00 131 ft 3.48 ft 9.1 sec 5.1 sec 0.6 sec 2400 sec
14:00 131 ft 4.53 ft 9.1 sec 5.2 sec 0.6 sec 2400 sec
16:00 131 ft 5.84 ft 10.8 sec 6.0 sec 0.6 sec 2400 sec
18:00 131 ft 5.61 ft 10.0 sec 6.1 sec 0.6 sec 2400 sec
19:00 131 ft 5.91 ft 10.0 sec 5.8 sec 0.6 sec 2400 sec
20:00 131 ft 6.23 ft 10.8 sec 5.8 sec 0.6 sec 2400 sec
21:00 131 ft 7.41 ft 10.0 sec 6.0 sec 0.6 sec 2400 sec